Time;durP1;ratioP1;P1;durP2;ratioP2;P2;SDS_P1;SDS_P2;PMS_P1;PMS_P2;Temp;Humidity;BMP_temperature;BMP_pressure;BME280_temperature;BME280_humidity;BME280_pressure;Samples;Min_cycle;Max_cycle;Signal;HPM_P1;HPM_P2
2023/01/15 00:02:45;;;;;;;0.10;0.10;;;;;;;6.20;100.00;94978.22;5050712;28;20176;-76
2023/01/15 00:05:31;;;;;;;0.20;0.20;;;;;;;5.92;100.00;94955.47;5050396;28;20040;-77
2023/01/15 00:08:16;;;;;;;0.10;0.10;;;;;;;5.78;100.00;94977.09;5050320;28;20048;-77
2023/01/15 00:11:03;;;;;;;0.20;0.20;;;;;;;5.71;100.00;94960.59;5049213;28;20518;-75
2023/01/15 00:13:50;;;;;;;0.10;0.10;;;;;;;5.54;100.00;94941.34;5051508;28;20060;-76
2023/01/15 00:16:35;;;;;;;0.10;0.10;;;;;;;5.46;100.00;94979.75;5048540;28;20113;-76
2023/01/15 00:19:21;;;;;;;0.15;0.15;;;;;;;5.42;100.00;94980.50;5050329;28;20514;-75
2023/01/15 00:22:07;;;;;;;0.20;0.20;;;;;;;5.38;100.00;94968.81;5049658;28;20444;-75
2023/01/15 00:27:57;;;;;;;0.20;0.20;;;;;;;5.22;100.00;94973.97;5050674;28;20153;-75
2023/01/15 00:30:43;;;;;;;0.13;0.13;;;;;;;5.23;100.00;94969.47;5051716;28;20151;-77
2023/01/15 00:33:29;;;;;;;0.20;0.20;;;;;;;5.18;100.00;94988.75;5051404;28;20093;-76
2023/01/15 00:36:15;;;;;;;0.20;0.20;;;;;;;5.11;100.00;94968.81;5047852;28;20040;-77
2023/01/15 00:39:01;;;;;;;0.15;0.15;;;;;;;5.01;100.00;94972.94;5040655;28;20255;-75
2023/01/15 00:41:46;;;;;;;0.20;0.20;;;;;;;4.97;100.00;94977.13;5049282;28;20432;-77
2023/01/15 00:44:32;;;;;;;0.20;0.20;;;;;;;4.97;100.00;94987.75;5049546;28;20400;-77
2023/01/15 00:47:18;;;;;;;0.20;0.20;;;;;;;4.87;100.00;95000.88;5051332;28;20607;-77
2023/01/15 00:50:06;;;;;;;0.20;0.20;;;;;;;4.81;100.00;94993.91;5048206;28;20144;-78
2023/01/15 00:52:54;;;;;;;0.17;0.17;;;;;;;4.78;100.00;94999.72;5050715;28;20947;-77
2023/01/15 00:55:40;;;;;;;0.10;0.10;;;;;;;4.78;100.00;94997.06;5033616;28;20037;-76
2023/01/15 00:58:26;;;;;;;0.20;0.20;;;;;;;4.77;100.00;94989.38;5047720;28;20086;-76
2023/01/15 01:01:13;;;;;;;0.10;0.10;;;;;;;4.73;100.00;94994.34;5061289;28;20546;-76
2023/01/15 01:04:00;;;;;;;0.10;0.10;;;;;;;4.67;100.00;94996.16;5049590;28;20045;-77
2023/01/15 01:06:45;;;;;;;0.10;0.10;;;;;;;4.61;100.00;95004.28;5037227;28;20673;-77
2023/01/15 01:09:31;;;;;;;0.20;0.20;;;;;;;4.44;100.00;94999.06;5049144;28;20312;-76
2023/01/15 01:12:38;;;;;;;0.10;0.10;;;;;;;4.44;100.00;95020.25;5059871;28;20048;-74
2023/01/15 01:15:24;;;;;;;0.20;0.20;;;;;;;4.48;100.00;95016.03;5034565;28;20649;-75
2023/01/15 01:18:10;;;;;;;0.10;0.10;;;;;;;4.44;100.00;95018.41;5044942;28;20337;-74
2023/01/15 01:20:56;;;;;;;0.20;0.20;;;;;;;4.35;100.00;95025.13;5049103;28;20118;-76
2023/01/15 01:23:42;;;;;;;0.20;0.20;;;;;;;4.23;100.00;95021.00;5048060;28;20387;-75
2023/01/15 01:26:29;;;;;;;0.22;0.22;;;;;;;4.13;100.00;95021.66;5049174;28;20040;-75
2023/01/15 01:29:17;;;;;;;0.20;0.20;;;;;;;3.98;100.00;95024.06;5042413;28;20052;-76
2023/01/15 01:32:03;;;;;;;0.20;0.20;;;;;;;3.89;100.00;95048.31;5052431;28;20321;-75
2023/01/15 01:34:49;;;;;;;0.20;0.20;;;;;;;3.76;100.00;95066.34;5051337;28;20798;-76
2023/01/15 01:37:55;;;;;;;0.13;0.13;;;;;;;3.55;100.00;95055.38;5039785;28;20044;-76
2023/01/15 01:40:42;;;;;;;0.10;0.10;;;;;;;3.45;100.00;95068.44;5038253;28;20421;-76
2023/01/15 01:43:29;;;;;;;0.20;0.20;;;;;;;3.44;100.00;95066.84;5051100;28;20058;-74
2023/01/15 01:46:15;;;;;;;0.20;0.20;;;;;;;3.43;100.00;95059.16;5050686;28;20306;-76
2023/01/15 01:49:07;;;;;;;0.20;0.20;;;;;;;3.34;100.00;95075.38;5044358;28;20076;-76
2023/01/15 01:52:01;;;;;;;0.20;0.20;;;;;;;3.36;100.00;95072.50;5052460;28;20045;-74
2023/01/15 01:54:48;;;;;;;0.20;0.20;;;;;;;3.34;100.00;95087.78;5050102;28;20330;-76
2023/01/15 01:57:35;;;;;;;0.10;0.10;;;;;;;3.30;100.00;95087.47;5052425;28;20153;-75
2023/01/15 02:00:22;;;;;;;0.10;0.10;;;;;;;3.29;100.00;95100.94;5061443;28;20048;-76
2023/01/15 02:03:09;;;;;;;0.20;0.20;;;;;;;3.17;100.00;95087.75;5052380;28;20276;-75
2023/01/15 02:05:58;;;;;;;0.15;0.15;;;;;;;3.19;100.00;95087.50;5050777;28;20070;-77
2023/01/15 02:08:46;;;;;;;0.17;0.17;;;;;;;3.15;100.00;95091.66;5037496;28;20121;-74
2023/01/15 02:11:33;;;;;;;0.20;0.20;;;;;;;3.12;100.00;95078.94;5043279;28;20314;-75
2023/01/15 02:14:28;;;;;;;0.20;0.20;;;;;;;3.08;100.00;95089.16;5063546;28;20151;-76
2023/01/15 02:17:19;;;;;;;0.10;0.10;;;;;;;3.08;100.00;95066.16;5050994;28;20041;-76
2023/01/15 02:20:11;;;;;;;0.20;0.20;;;;;;;3.04;100.00;95075.63;5051837;28;20205;-73
2023/01/15 02:23:15;;;;;;;0.20;0.20;;;;;;;3.00;100.00;95060.47;5052994;28;20040;-75
2023/01/15 02:26:17;;;;;;;0.20;0.20;;;;;;;2.99;100.00;95062.28;5052665;28;20295;-76
2023/01/15 02:29:06;;;;;;;0.10;0.10;;;;;;;2.88;100.00;95055.22;5043380;28;20468;-73
2023/01/15 02:31:52;;;;;;;0.20;0.20;;;;;;;2.96;100.00;95073.34;5063934;28;20127;-76
2023/01/15 02:34:46;;;;;;;0.20;0.20;;;;;;;3.03;100.00;95066.06;5051459;28;20394;-75
2023/01/15 02:37:40;;;;;;;0.20;0.20;;;;;;;3.04;100.00;95062.41;5039470;28;20579;-75
2023/01/15 02:40:29;;;;;;;0.10;0.10;;;;;;;2.96;100.00;95061.97;5035940;28;20071;-75
2023/01/15 02:43:16;;;;;;;0.10;0.10;;;;;;;2.84;100.00;95050.63;5053298;28;20488;-74
2023/01/15 02:46:05;;;;;;;0.20;0.20;;;;;;;2.94;100.00;95056.91;5065150;28;20039;-75
2023/01/15 02:49:16;;;;;;;0.20;0.20;;;;;;;2.95;100.00;95058.50;5036138;28;20044;-75
2023/01/15 02:52:11;;;;;;;0.20;0.20;;;;;;;2.91;100.00;95057.38;5036882;28;20567;-75
2023/01/15 02:55:06;;;;;;;0.17;0.17;;;;;;;2.92;100.00;95056.34;5038474;28;20048;-76
2023/01/15 02:57:58;;;;;;;0.13;0.13;;;;;;;2.91;100.00;95052.09;5063419;28;20452;-74
2023/01/15 03:00:48;;;;;;;0.20;0.20;;;;;;;2.91;100.00;95057.38;5042353;28;20404;-75
2023/01/15 03:03:47;;;;;;;0.15;0.15;;;;;;;2.82;100.00;95061.44;5061668;27;20052;-72
2023/01/15 03:06:48;;;;;;;0.17;0.17;;;;;;;2.80;100.00;95055.56;5034373;28;20876;-76
2023/01/15 03:09:37;;;;;;;0.20;0.20;;;;;;;2.82;100.00;95058.78;5034514;28;20133;-75
2023/01/15 03:12:29;;;;;;;0.20;0.20;;;;;;;2.73;100.00;95060.19;5040419;28;20718;-76
2023/01/15 03:16:33;;;;;;;0.20;0.20;;;;;;;2.78;100.00;95070.84;5035650;28;20647;-76
2023/01/15 03:18:30;;;;;;;0.20;0.20;;;;;;;2.85;100.00;95062.78;5043567;28;20048;-74
2023/01/15 03:21:25;;;;;;;0.20;0.20;;;;;;;2.82;100.00;95048.22;5035854;28;20067;-76
2023/01/15 03:24:17;;;;;;;0.20;0.20;;;;;;;2.83;100.00;95049.03;5037895;28;20036;-76
2023/01/15 03:27:03;;;;;;;;;;;;;;;2.81;100.00;95049.25;5051737;28;20040;-75
2023/01/15 03:29:54;;;;;;;0.20;0.20;;;;;;;2.90;100.00;95058.41;5062508;28;20428;-76
2023/01/15 03:32:40;;;;;;;0.20;0.20;;;;;;;2.83;100.00;95054.31;5049814;28;20436;-76
2023/01/15 03:35:52;;;;;;;0.20;0.20;;;;;;;2.83;100.00;95060.38;5048188;28;20451;-74
2023/01/15 03:38:49;;;;;;;0.20;0.20;;;;;;;2.86;100.00;95054.63;5038777;28;20503;-76
2023/01/15 03:42:15;;;;;;;0.20;0.20;;;;;;;2.84;100.00;95051.44;5038806;28;20044;-76
2023/01/15 03:45:18;;;;;;;0.10;0.10;;;;;;;2.71;100.00;95051.69;5062489;28;20040;-76
2023/01/15 03:48:16;;;;;;;0.20;0.20;;;;;;;2.77;100.00;95056.03;5062619;28;20625;-76
2023/01/15 03:51:12;;;;;;;0.20;0.20;;;;;;;2.77;100.00;95066.59;5061264;28;20509;-75
2023/01/15 03:54:02;;;;;;;0.20;0.20;;;;;;;2.83;100.00;95068.31;5059646;28;20097;-75
2023/01/15 03:56:57;;;;;;;0.20;0.20;;;;;;;2.69;100.00;95057.19;5052098;28;20044;-76
2023/01/15 03:59:52;;;;;;;0.20;0.20;;;;;;;2.62;100.00;95068.94;5063020;28;20076;-75
2023/01/15 04:02:39;;;;;;;0.20;0.20;;;;;;;2.57;100.00;95050.31;5036390;28;20058;-74
2023/01/15 04:05:27;;;;;;;0.20;0.20;;;;;;;2.66;100.00;95080.66;5064548;28;20374;-76
2023/01/15 04:08:14;;;;;;;0.20;0.20;;;;;;;2.60;100.00;95063.09;5060243;28;20368;-76
2023/01/15 04:11:02;;;;;;;0.10;0.10;;;;;;;2.68;100.00;95068.00;5061371;28;20698;-76
2023/01/15 04:13:57;;;;;;;0.10;0.10;;;;;;;2.57;100.00;95076.72;5047855;28;20076;-77
2023/01/15 04:16:50;;;;;;;0.20;0.20;;;;;;;2.55;100.00;95062.97;5035982;28;20044;-77
2023/01/15 04:19:36;;;;;;;0.20;0.20;;;;;;;2.68;100.00;95070.66;5062551;28;20312;-78
2023/01/15 04:22:25;;;;;;;0.20;0.20;;;;;;;2.71;100.00;95067.53;5055108;28;20559;-78
2023/01/15 04:25:11;;;;;;;0.20;0.20;;;;;;;2.76;100.00;95078.22;5062638;28;20314;-77
2023/01/15 04:27:57;;;;;;;0.20;0.20;;;;;;;2.77;100.00;95083.25;5049806;28;20055;-76
2023/01/15 04:30:43;;;;;;;0.10;0.10;;;;;;;2.71;100.00;95089.47;5049174;28;20048;-78
2023/01/15 04:33:29;;;;;;;0.30;0.30;;;;;;;2.68;100.00;95094.41;5060981;28;20492;-77
2023/01/15 04:36:15;;;;;;;0.20;0.20;;;;;;;2.58;100.00;95073.88;5051591;28;20338;-77
2023/01/15 04:39:02;;;;;;;0.10;0.10;;;;;;;2.56;100.00;95077.78;5052122;28;20364;-77
2023/01/15 04:44:52;;;;;;;0.20;0.20;;;;;;;2.51;100.00;95089.03;5051706;28;20048;-77
2023/01/15 04:47:38;;;;;;;0.20;0.20;;;;;;;2.42;100.00;95099.16;5049766;28;20178;-76
2023/01/15 04:50:24;;;;;;;0.20;0.20;;;;;;;2.41;100.00;95067.69;5047160;28;20036;-76
2023/01/15 04:53:10;;;;;;;0.20;0.20;;;;;;;2.42;100.00;95075.38;5050852;28;20047;-76
2023/01/15 04:56:01;;;;;;;0.20;0.20;;;;;;;2.41;100.00;95071.16;5047801;28;20593;-76
2023/01/15 04:58:47;;;;;;;0.20;0.20;;;;;;;2.30;100.00;95089.63;5032365;28;20324;-77
2023/01/15 05:01:33;;;;;;;0.20;0.20;;;;;;;2.26;100.00;95101.66;5049171;28;20376;-77
2023/01/15 05:04:19;;;;;;;0.10;0.10;;;;;;;2.27;100.00;95077.69;5053873;28;20048;-77
2023/01/15 05:07:05;;;;;;;0.20;0.20;;;;;;;2.22;100.00;95073.09;5056404;28;20532;-76
2023/01/15 05:09:52;;;;;;;0.10;0.10;;;;;;;2.05;100.00;95069.53;5054172;28;20064;-77
2023/01/15 05:12:38;;;;;;;0.20;0.20;;;;;;;2.04;100.00;95053.94;5057554;28;20083;-75
2023/01/15 05:15:23;;;;;;;0.20;0.20;;;;;;;2.11;100.00;95057.25;5054580;28;20564;-77
2023/01/15 05:18:13;;;;;;;0.20;0.20;;;;;;;2.22;100.00;95064.38;5055213;28;20044;-76
2023/01/15 05:20:59;;;;;;;0.15;0.15;;;;;;;2.07;100.00;95051.63;5054920;28;20159;-76
2023/01/15 05:23:46;;;;;;;0.20;0.20;;;;;;;2.15;100.00;95061.03;5053039;28;20040;-76
2023/01/15 05:26:32;;;;;;;0.20;0.20;;;;;;;1.98;100.00;95054.84;5054950;28;20566;-75
2023/01/15 05:29:20;;;;;;;0.20;0.20;;;;;;;2.08;100.00;95081.47;5056216;28;20341;-77
2023/01/15 05:32:06;;;;;;;0.20;0.20;;;;;;;1.92;100.00;95059.19;5055028;28;20422;-77
2023/01/15 05:34:52;;;;;;;0.20;0.20;;;;;;;2.00;100.00;95061.50;5054356;28;20204;-75
2023/01/15 05:37:38;;;;;;;0.10;0.10;;;;;;;2.01;100.00;95047.25;5054243;28;20547;-75
2023/01/15 05:40:24;;;;;;;0.20;0.20;;;;;;;1.89;100.00;95067.56;5056459;28;20123;-75
2023/01/15 05:43:09;;;;;;;0.20;0.20;;;;;;;1.97;100.00;95063.78;5056166;28;20043;-76
2023/01/15 05:46:00;;;;;;;0.20;0.20;;;;;;;2.00;100.00;95055.41;5056052;28;20063;-76
2023/01/15 05:48:47;;;;;;;;;;;;;;;2.08;100.00;95065.63;5056136;28;20032;-77
2023/01/15 05:51:35;;;;;;;0.20;0.20;;;;;;;2.05;100.00;95081.94;5053957;28;20032;-77
2023/01/15 05:54:23;;;;;;;0.20;0.20;;;;;;;2.05;100.00;95074.00;5054231;28;20036;-77
2023/01/15 05:57:11;;;;;;;0.20;0.20;;;;;;;2.10;100.00;95082.03;5056541;28;20044;-75
2023/01/15 05:59:58;;;;;;;0.20;0.20;;;;;;;2.14;100.00;95083.19;5052348;28;20294;-75
2023/01/15 06:02:48;;;;;;;0.20;0.20;;;;;;;2.14;100.00;95091.91;5054069;28;20040;-76
2023/01/15 06:05:34;;;;;;;0.10;0.10;;;;;;;2.26;100.00;95094.56;5040959;28;20040;-77
2023/01/15 06:08:21;;;;;;;0.10;0.10;;;;;;;2.14;100.00;95093.75;5055543;28;20105;-74
2023/01/15 06:11:07;;;;;;;0.20;0.20;;;;;;;2.17;100.00;95101.19;5055774;28;20032;-75
2023/01/15 06:13:53;;;;;;;0.20;0.20;;;;;;;2.21;100.00;95094.44;5040751;28;20056;-76
2023/01/15 06:16:39;;;;;;;0.20;0.20;;;;;;;2.05;100.00;95101.19;5055883;28;20079;-74
2023/01/15 06:19:25;;;;;;;0.20;0.20;;;;;;;1.99;100.00;95096.81;5046471;28;20059;-74
2023/01/15 06:22:11;;;;;;;0.10;0.10;;;;;;;2.10;100.00;95085.50;5050995;28;20043;-75
2023/01/15 06:24:57;;;;;;;0.13;0.13;;;;;;;2.13;100.00;95092.13;5054540;28;20044;-74
2023/01/15 06:27:43;;;;;;;0.20;0.20;;;;;;;2.14;100.00;95091.91;5053598;28;20035;-75
2023/01/15 06:30:29;;;;;;;0.20;0.20;;;;;;;1.99;100.00;95102.09;5053658;28;20092;-76
2023/01/15 06:33:15;;;;;;;0.20;0.20;;;;;;;2.00;100.00;95108.97;5057693;28;20083;-76
2023/01/15 06:36:07;;;;;;;0.20;0.20;;;;;;;2.14;100.00;95099.03;5038896;28;20047;-76
2023/01/15 06:38:53;;;;;;;0.20;0.20;;;;;;;2.12;100.00;95109.00;5053138;28;20436;-74
2023/01/15 06:47:47;;;;;;;0.20;0.20;;;;;;;2.02;100.00;95111.38;5066191;27;20044;-73
2023/01/15 06:50:33;;;;;;;0.20;0.20;;;;;;;2.04;100.00;95114.63;5053780;28;20565;-75
2023/01/15 06:53:20;;;;;;;0.20;0.20;;;;;;;2.03;100.00;95119.09;5065256;27;20052;-75
2023/01/15 06:56:06;;;;;;;0.20;0.20;;;;;;;1.86;100.00;95123.41;5051416;28;20036;-74
2023/01/15 06:58:54;;;;;;;0.20;0.20;;;;;;;1.89;100.00;95102.66;5055159;28;20420;-75
2023/01/15 07:01:40;;;;;;;0.20;0.20;;;;;;;1.80;100.00;95113.78;5052229;28;20329;-75
2023/01/15 07:04:26;;;;;;;0.20;0.20;;;;;;;1.88;100.00;95122.16;5053396;28;20049;-74
2023/01/15 07:07:14;;;;;;;0.17;0.17;;;;;;;1.78;100.00;95116.63;5054395;28;20036;-75
2023/01/15 07:10:00;;;;;;;0.20;0.20;;;;;;;1.80;100.00;95117.22;5050371;28;20040;-75
2023/01/15 07:12:46;;;;;;;0.20;0.20;;;;;;;1.70;100.00;95114.31;5056225;28;20044;-76
2023/01/15 07:15:33;;;;;;;0.20;0.20;;;;;;;1.65;100.00;95128.19;5041395;28;20101;-76
2023/01/15 07:18:19;;;;;;;0.10;0.10;;;;;;;1.81;100.00;95133.84;5054405;28;20037;-76
2023/01/15 07:21:05;;;;;;;0.20;0.20;;;;;;;1.78;100.00;95139.56;5052886;28;20085;-77
2023/01/15 07:23:51;;;;;;;0.20;0.20;;;;;;;1.28;100.00;95148.56;5055363;28;20037;-75
2023/01/15 07:26:37;;;;;;;0.20;0.20;;;;;;;1.27;100.00;95152.22;5053445;28;20830;-75
2023/01/15 07:29:23;;;;;;;0.20;0.20;;;;;;;1.50;100.00;95166.53;5041146;28;20040;-74
2023/01/15 07:32:10;;;;;;;0.20;0.20;;;;;;;1.52;100.00;95148.66;5054997;28;20040;-76
2023/01/15 07:34:56;;;;;;;0.20;0.20;;;;;;;1.63;100.00;95171.59;5054741;28;20574;-77
2023/01/15 07:37:42;;;;;;;0.20;0.20;;;;;;;1.65;100.00;95169.56;5046191;28;20121;-76
2023/01/15 07:40:28;;;;;;;0.20;0.20;;;;;;;1.61;100.00;95157.84;5054196;28;20326;-75
2023/01/15 07:49:44;;;;;;;0.20;0.20;;;;;;;1.07;100.00;95165.63;5067592;28;20131;-74
2023/01/15 07:52:30;;;;;;;0.20;0.20;;;;;;;1.18;100.00;95177.25;5053263;28;20653;-73
2023/01/15 07:55:35;;;;;;;0.20;0.20;;;;;;;1.28;100.00;95174.91;4979849;28;10000728;-75
2023/01/15 07:58:21;;;;;;;0.20;0.20;;;;;;;1.44;100.00;95172.69;5055649;28;20626;-75
2023/01/15 08:01:09;;;;;;;0.22;0.22;;;;;;;1.55;100.00;95159.53;5051130;28;20362;-74
2023/01/15 08:03:55;;;;;;;0.10;0.10;;;;;;;1.68;100.00;95200.75;5051461;28;20459;-74
2023/01/15 08:06:40;;;;;;;0.20;0.20;;;;;;;1.64;100.00;95183.78;5053318;28;20377;-75
2023/01/15 08:09:27;;;;;;;0.10;0.10;;;;;;;1.64;100.00;95181.97;5050605;28;20078;-74
2023/01/15 08:15:21;;;;;;;0.20;0.20;;;;;;;1.48;100.00;95176.47;5051049;28;20151;-75
2023/01/15 08:18:07;;;;;;;0.20;0.20;;;;;;;1.54;100.00;95178.22;5051973;28;20043;-75
2023/01/15 08:20:52;;;;;;;0.20;0.20;;;;;;;1.59;100.00;95191.56;5051433;28;20048;-75
2023/01/15 08:23:38;;;;;;;0.20;0.20;;;;;;;1.37;100.00;95170.94;5036669;28;20697;-76
2023/01/15 08:26:24;;;;;;;0.20;0.20;;;;;;;1.50;100.00;95192.91;5052098;28;20037;-74
2023/01/15 08:29:10;;;;;;;0.20;0.20;;;;;;;1.41;100.00;95181.84;5052779;28;20032;-75
2023/01/15 08:31:56;;;;;;;0.20;0.20;;;;;;;1.65;100.00;95198.59;5050804;28;20107;-76
2023/01/15 08:34:41;;;;;;;0.20;0.20;;;;;;;1.55;100.00;95191.19;5051837;28;20036;-74
2023/01/15 08:37:27;;;;;;;0.20;0.20;;;;;;;1.61;100.00;95190.31;5052313;28;20056;-75
2023/01/15 08:40:13;;;;;;;0.10;0.10;;;;;;;1.71;100.00;95204.78;5054905;28;20581;-76
2023/01/15 08:42:59;;;;;;;0.20;0.20;;;;;;;1.80;100.00;95208.75;5054464;28;20087;-75
2023/01/15 08:45:45;;;;;;;0.20;0.20;;;;;;;1.82;100.00;95211.94;5052993;28;20036;-75
2023/01/15 08:48:33;;;;;;;0.20;0.20;;;;;;;1.64;100.00;95197.78;5052424;28;20039;-75
2023/01/15 08:51:19;;;;;;;0.13;0.13;;;;;;;1.65;100.00;95201.22;5052018;28;20109;-76
2023/01/15 08:54:06;;;;;;;0.20;0.20;;;;;;;1.80;100.00;95199.00;5054528;28;20276;-74
2023/01/15 08:56:52;;;;;;;0.20;0.20;;;;;;;1.63;100.00;95200.63;5045269;28;20551;-75
2023/01/15 08:59:37;;;;;;;0.10;0.10;;;;;;;1.67;100.00;95207.06;5052731;28;20310;-74
2023/01/15 09:02:23;;;;;;;0.10;0.10;;;;;;;1.64;100.00;95200.41;5052259;28;20028;-75
2023/01/15 09:05:11;;;;;;;0.20;0.20;;;;;;;1.73;100.00;95206.19;5052379;28;20783;-77
2023/01/15 09:07:57;;;;;;;0.20;0.20;;;;;;;1.78;100.00;95216.03;5055075;28;20048;-74
2023/01/15 09:10:43;;;;;;;0.20;0.20;;;;;;;1.83;100.00;95218.84;5054380;28;20155;-76
2023/01/15 09:13:30;;;;;;;0.10;0.10;;;;;;;1.97;100.00;95215.00;5052028;28;20553;-76
2023/01/15 09:16:17;;;;;;;0.10;0.10;;;;;;;2.19;100.00;95213.44;5055118;28;20377;-76
2023/01/15 09:19:06;;;;;;;0.20;0.20;;;;;;;2.20;100.00;95224.81;5057048;28;20117;-75
2023/01/15 09:21:51;;;;;;;0.20;0.20;;;;;;;2.27;100.00;95219.44;5054235;28;20041;-76
2023/01/15 09:24:37;;;;;;;0.20;0.20;;;;;;;2.26;100.00;95213.34;5055989;28;20207;-74
2023/01/15 09:27:23;;;;;;;0.20;0.20;;;;;;;2.23;100.00;95211.94;5056541;28;20547;-76
2023/01/15 09:30:16;;;;;;;0.20;0.20;;;;;;;2.19;100.00;95217.94;5054720;28;20462;-75
2023/01/15 09:33:01;;;;;;;0.20;0.20;;;;;;;2.36;100.00;95205.66;5068874;28;20052;-75
2023/01/15 09:35:48;;;;;;;0.20;0.20;;;;;;;2.38;100.00;95208.88;5055538;28;20043;-75
2023/01/15 09:38:34;;;;;;;0.20;0.20;;;;;;;2.51;100.00;95237.72;5070515;28;20503;-76
2023/01/15 09:44:43;;;;;;;0.20;0.20;;;;;;;2.44;100.00;95236.22;5053260;28;20143;-75
2023/01/15 09:47:35;;;;;;;0.20;0.20;;;;;;;2.40;100.00;95238.50;5027148;28;20101;-76
2023/01/15 09:50:27;;;;;;;0.20;0.20;;;;;;;2.50;100.00;95237.97;5046398;28;20036;-75
2023/01/15 09:53:23;;;;;;;0.10;0.10;;;;;;;2.55;100.00;95246.00;5053712;28;20033;-74
2023/01/15 09:56:31;;;;;;;0.20;0.20;;;;;;;2.58;100.00;95247.38;5053384;28;20040;-75
2023/01/15 09:59:39;;;;;;;0.15;0.15;;;;;;;2.44;100.00;95252.06;5053842;28;20237;-76
2023/01/15 10:02:39;;;;;;;0.20;0.20;;;;;;;2.44;100.00;95267.91;5056856;28;20036;-75
2023/01/15 10:05:40;;;;;;;0.20;0.20;;;;;;;2.46;100.00;95263.19;5056562;28;20048;-74
2023/01/15 10:09:03;;;;;;;0.20;0.20;;;;;;;2.45;100.00;95254.47;5054934;28;20270;-74
2023/01/15 10:15:36;;;;;;;0.20;0.20;;;;;;;2.31;100.00;95246.97;5054673;28;20424;-76
2023/01/15 10:18:25;;;;;;;0.20;0.20;;;;;;;2.32;100.00;95251.22;5056717;28;20259;-76
2023/01/15 10:21:19;;;;;;;0.20;0.20;;;;;;;2.29;100.00;95247.22;5056847;28;20434;-74
2023/01/15 10:24:25;;;;;;;0.20;0.20;;;;;;;2.39;100.00;95238.72;5053687;28;20065;-73
2023/01/15 10:27:21;;;;;;;0.20;0.20;;;;;;;2.61;100.00;95253.00;5055186;28;20551;-75
2023/01/15 10:30:15;;;;;;;0.20;0.20;;;;;;;2.37;100.00;95243.44;5052525;28;20504;-73
2023/01/15 10:33:19;;;;;;;0.20;0.20;;;;;;;2.50;100.00;95249.31;5052620;28;20432;-73
2023/01/15 10:36:32;;;;;;;0.22;0.22;;;;;;;2.59;100.00;95270.94;5054211;28;20044;-75
2023/01/15 10:39:33;;;;;;;0.20;0.20;;;;;;;3.13;100.00;95270.84;5053712;28;20868;-75
2023/01/15 10:42:39;;;;;;;0.20;0.20;;;;;;;3.86;100.00;95257.84;5067537;28;20066;-75
2023/01/15 10:45:29;;;;;;;0.30;0.30;;;;;;;4.45;100.00;95257.59;5055030;28;20548;-75
2023/01/15 10:48:24;;;;;;;0.20;0.20;;;;;;;4.64;100.00;95256.31;5053015;28;20352;-75
2023/01/15 10:51:37;;;;;;;0.20;0.20;;;;;;;4.15;100.00;95261.31;5051313;28;20175;-74
2023/01/15 10:54:37;;;;;;;0.20;0.20;;;;;;;3.99;100.00;95255.97;5052880;28;20392;-75
2023/01/15 10:57:42;;;;;;;0.20;0.20;;;;;;;3.94;100.00;95261.94;5049177;28;20049;-75
2023/01/15 11:00:28;;;;;;;0.20;0.20;;;;;;;3.64;100.00;95257.66;5066715;27;20512;-74
2023/01/15 11:03:21;;;;;;;0.20;0.20;;;;;;;3.70;100.00;95271.81;5056045;28;20044;-75
2023/01/15 11:06:14;;;;;;;0.20;0.20;;;;;;;3.86;100.00;95275.56;5055114;28;20254;-75
2023/01/15 11:09:00;;;;;;;0.20;0.20;;;;;;;3.54;100.00;95265.41;5057804;28;20503;-75
2023/01/15 11:20:54;;;;;;;0.20;0.20;;;;;;;3.67;100.00;95279.41;5052548;28;20510;-76
2023/01/15 11:23:40;;;;;;;0.20;0.20;;;;;;;3.46;100.00;95286.91;5053936;28;20114;-75
2023/01/15 11:26:29;;;;;;;0.20;0.20;;;;;;;3.88;100.00;95276.13;5053843;28;20937;-75
2023/01/15 11:29:30;;;;;;;0.20;0.20;;;;;;;4.26;100.00;95288.75;5051397;28;20036;-76
2023/01/15 11:32:25;;;;;;;0.20;0.20;;;;;;;4.60;100.00;95270.31;5063105;28;20040;-77
2023/01/15 11:35:17;;;;;;;0.20;0.20;;;;;;;3.95;100.00;95260.09;5038295;28;20095;-77
2023/01/15 11:38:05;;;;;;;0.20;0.20;;;;;;;4.40;100.00;95263.59;5049407;28;20299;-77
2023/01/15 11:40:56;;;;;;;0.40;0.40;;;;;;;7.17;100.00;95256.13;5054183;28;20487;-76
2023/01/15 11:52:59;;;;;;;0.20;0.20;;;;;;;9.64;100.00;95244.63;5052313;28;20105;-75
2023/01/15 11:56:12;;;;;;;0.30;0.30;;;;;;;8.51;100.00;95237.78;5066995;28;20389;-75
2023/01/15 11:59:09;;;;;;;0.20;0.20;;;;;;;8.18;100.00;95247.81;5054053;28;20044;-75
2023/01/15 12:02:00;;;;;;;0.10;0.10;;;;;;;7.02;100.00;95238.19;5053466;28;20037;-75
2023/01/15 12:04:53;;;;;;;0.40;0.30;;;;;;;8.38;100.00;95239.09;5054117;28;20036;-75
2023/01/15 12:07:39;;;;;;;0.20;0.20;;;;;;;8.95;100.00;95227.41;5044539;28;20040;-75
2023/01/15 12:11:02;;;;;;;0.30;0.30;;;;;;;10.52;100.00;95226.09;5051752;28;20202;-75
2023/01/15 12:13:56;;;;;;;0.30;0.30;;;;;;;12.26;99.11;95234.06;5046065;28;20044;-76
2023/01/15 12:17:03;;;;;;;0.20;0.20;;;;;;;10.39;95.98;95239.28;5054925;28;20044;-75
2023/01/15 12:20:04;;;;;;;0.20;0.20;;;;;;;9.58;100.00;95257.22;5041314;28;20503;-76
2023/01/15 12:23:27;;;;;;;0.38;0.30;;;;;;;10.19;100.00;95243.63;5056089;28;20036;-75
2023/01/15 12:26:25;;;;;;;0.10;0.10;;;;;;;8.34;100.00;95246.00;5053265;28;20141;-75
2023/01/15 12:29:16;;;;;;;0.10;0.10;;;;;;;7.19;100.00;95243.34;5066716;28;20356;-76
2023/01/15 12:32:08;;;;;;;0.20;0.20;;;;;;;7.56;100.00;95242.50;5053803;28;20040;-75
2023/01/15 12:34:59;;;;;;;0.45;0.35;;;;;;;7.43;100.00;95225.94;5054573;28;20044;-76
2023/01/15 12:38:18;;;;;;;0.30;0.30;;;;;;;11.21;96.75;95231.47;5052819;28;20294;-76
2023/01/15 12:41:12;;;;;;;0.28;0.28;;;;;;;10.67;90.89;95225.19;5054623;28;20348;-76
2023/01/15 12:47:09;;;;;;;0.45;0.40;;;;;;;14.60;49.76;95215.75;5053836;28;20641;-75
2023/01/15 12:50:25;;;;;;;0.30;0.30;;;;;;;13.79;57.21;95202.09;5067307;28;20098;-75
2023/01/15 12:53:41;;;;;;;0.20;0.20;;;;;;;10.75;76.70;95213.09;5022666;28;20044;-75
2023/01/15 12:56:36;;;;;;;0.20;0.20;;;;;;;12.05;70.62;95197.84;5052519;28;20557;-75
2023/01/15 12:59:29;;;;;;;0.20;0.20;;;;;;;11.95;68.67;95198.00;5051543;28;20642;-76
2023/01/15 13:02:27;;;;;;;0.40;0.40;;;;;;;11.03;89.04;95200.81;5053859;28;20452;-76
2023/01/15 13:05:21;;;;;;;0.43;0.40;;;;;;;15.29;56.67;95191.22;5053906;28;20052;-75
2023/01/15 13:08:38;;;;;;;0.30;0.30;;;;;;;14.26;51.33;95193.88;5050536;28;20044;-75
2023/01/15 13:11:23;;;;;;;0.20;0.20;;;;;;;11.11;81.70;95202.88;5053570;28;20040;-76
2023/01/15 13:14:17;;;;;;;0.20;0.20;;;;;;;9.16;91.23;95228.19;5043148;28;20044;-75
2023/01/15 13:17:16;;;;;;;0.20;0.20;;;;;;;7.89;100.00;95234.13;5051881;28;20459;-75
2023/01/15 13:20:33;;;;;;;0.10;0.10;;;;;;;7.20;100.00;95253.72;5051885;28;20340;-75
2023/01/15 13:23:37;;;;;;;0.20;0.20;;;;;;;6.00;100.00;95253.19;5065083;28;20040;-75
2023/01/15 13:26:45;;;;;;;0.10;0.10;;;;;;;6.13;100.00;95252.00;5054441;28;20455;-75
2023/01/15 13:29:40;;;;;;;0.20;0.20;;;;;;;6.35;100.00;95252.75;5054353;28;20052;-75
2023/01/15 13:32:32;;;;;;;0.10;0.10;;;;;;;6.42;100.00;95250.69;5056032;28;20044;-75
2023/01/15 13:35:32;;;;;;;0.20;0.20;;;;;;;5.51;100.00;95270.84;5055210;28;20249;-75
2023/01/15 13:38:26;;;;;;;0.20;0.20;;;;;;;5.47;100.00;95259.94;5056368;28;20048;-75
2023/01/15 13:42:30;;;;;;;0.10;0.10;;;;;;;5.27;100.00;95271.06;5042954;28;20235;-75
2023/01/15 13:44:32;;;;;;;0.10;0.10;;;;;;;5.45;100.00;95266.56;5052663;28;20114;-75
2023/01/15 13:47:26;;;;;;;0.20;0.20;;;;;;;5.21;100.00;95284.50;5058646;28;20196;-75
2023/01/15 13:50:27;;;;;;;0.10;0.10;;;;;;;5.13;100.00;95284.91;5056126;28;20133;-75
2023/01/15 13:53:20;;;;;;;;;;;;;;;5.14;100.00;95286.53;5068312;28;20703;-75
2023/01/15 13:56:06;;;;;;;0.20;0.20;;;;;;;4.94;100.00;95298.41;5055032;28;20789;-74
2023/01/15 13:58:57;;;;;;;0.15;0.15;;;;;;;4.84;100.00;95290.31;5056209;28;20194;-75
2023/01/15 14:01:45;;;;;;;0.20;0.20;;;;;;;4.79;100.00;95297.38;5054320;28;20051;-75
2023/01/15 14:04:37;;;;;;;0.10;0.10;;;;;;;4.69;100.00;95284.75;5041621;28;20572;-75
2023/01/15 14:07:35;;;;;;;0.10;0.10;;;;;;;4.25;100.00;95294.31;5057209;28;20044;-75
2023/01/15 14:10:31;;;;;;;0.10;0.10;;;;;;;4.22;100.00;95289.50;5056393;28;20032;-75
2023/01/15 14:13:44;;;;;;;0.10;0.10;;;;;;;4.32;100.00;95293.13;5053929;28;20043;-75
2023/01/15 14:16:56;;;;;;;0.17;0.17;;;;;;;4.19;100.00;95296.84;5055508;28;20040;-74
2023/01/15 14:19:41;;;;;;;;;;;;;;;4.31;100.00;95299.47;5040583;28;20650;-73